createdAt,value
2022-08-14T00:00:32.673Z,74.21
2022-08-14T00:01:32.685Z,74.93
2022-08-14T00:02:32.701Z,74.82
2022-08-14T00:03:32.636Z,74.35
2022-08-14T00:04:35.528Z,74.11
2022-08-14T00:05:33.704Z,72.96
2022-08-14T00:06:32.598Z,73.77
2022-08-14T00:07:32.623Z,74.01
2022-08-14T00:08:44.458Z,74.01
2022-08-14T00:09:33.564Z,74.21
2022-08-14T00:10:51.492Z,73.91
2022-08-14T00:11:33.582Z,74.21
2022-08-14T00:12:34.127Z,72.34
2022-08-14T00:13:33.528Z,72.75
2022-08-14T00:14:32.510Z,72.34
2022-08-14T00:15:43.609Z,72.72
2022-08-14T00:16:41.291Z,72.41
2022-08-14T00:17:37.932Z,72.82
2022-08-14T00:19:05.651Z,71.91
2022-08-14T00:19:33.458Z,72.86
2022-08-14T00:20:41.150Z,72.41
2022-08-14T00:21:33.457Z,72.25
2022-08-14T00:22:56.225Z,72.72
2022-08-14T00:23:33.447Z,72.65
2022-08-14T00:24:32.420Z,72.11
2022-08-14T00:25:42.165Z,72.96
2022-08-14T00:26:33.467Z,73.16
2022-08-14T00:27:37.882Z,72.96
2022-08-14T00:28:34.895Z,72.89
2022-08-14T00:29:33.114Z,72.86
2022-08-14T00:30:33.339Z,72.58
2022-08-14T00:31:44.083Z,72.78
2022-08-14T00:33:01.577Z,72.69
2022-08-14T00:33:50.802Z,72.69
2022-08-14T00:34:37.062Z,72.55
2022-08-14T00:36:37.431Z,72.99
2022-08-14T00:36:39.320Z,72.04
2022-08-14T00:37:33.266Z,72.48
2022-08-14T00:38:34.896Z,72.14
2022-08-14T00:39:32.326Z,72.75
2022-08-14T00:40:35.582Z,72.34
2022-08-14T00:41:32.222Z,72.69
2022-08-14T00:42:54.919Z,73.30
2022-08-14T00:43:33.194Z,73.19
2022-08-14T00:44:33.272Z,73.10
2022-08-14T00:45:32.279Z,72.58
2022-08-14T00:46:33.437Z,72.28
2022-08-14T00:47:32.195Z,72.99
2022-08-14T00:48:34.611Z,72.89
2022-08-14T00:49:38.232Z,72.69
2022-08-14T00:50:33.143Z,72.99
2022-08-14T00:51:38.090Z,72.89
2022-08-14T00:52:33.101Z,72.48
2022-08-14T00:53:32.120Z,72.55
2022-08-14T00:54:32.116Z,72.99
2022-08-14T00:55:32.082Z,74.15
2022-08-14T00:56:32.058Z,74.11
2022-08-14T00:57:32.045Z,74.01
2022-08-14T00:58:33.137Z,74.21
2022-08-14T00:59:32.047Z,74.15
2022-08-14T01:00:37.364Z,74.86
2022-08-14T01:01:33.032Z,75.16
2022-08-14T01:02:32.374Z,75.27
2022-08-14T01:03:31.991Z,74.96
2022-08-14T01:04:51.313Z,74.32
2022-08-14T01:05:51.089Z,74.65
2022-08-14T01:06:34.427Z,74.45
2022-08-14T01:07:38.551Z,74.15
2022-08-14T01:08:51.382Z,74.11
2022-08-14T01:09:32.955Z,74.04
2022-08-14T01:10:38.293Z,74.11
2022-08-14T01:11:35.548Z,73.30
2022-08-14T01:12:31.890Z,74.15
2022-08-14T01:13:42.293Z,74.11
2022-08-14T01:14:32.878Z,73.64
2022-08-14T01:15:57.493Z,74.11
2022-08-14T01:16:32.848Z,74.01
2022-08-14T01:17:31.827Z,74.04
2022-08-14T01:18:31.815Z,74.35
2022-08-14T01:19:31.923Z,74.11
2022-08-14T01:20:31.794Z,74.55
2022-08-14T01:21:31.783Z,74.25
2022-08-14T01:22:31.836Z,74.25
2022-08-14T01:23:41.772Z,74.69
2022-08-14T01:24:34.468Z,74.99
2022-08-14T01:25:31.739Z,76.62
2022-08-14T01:26:34.536Z,74.69
2022-08-14T01:27:31.711Z,73.97
2022-08-14T01:28:46.537Z,74.18
2022-08-14T01:29:58.113Z,73.88
2022-08-14T01:30:38.278Z,74.38
2022-08-14T01:31:32.670Z,74.18
2022-08-14T01:32:31.663Z,73.97
2022-08-14T01:33:52.196Z,72.82
2022-08-14T01:35:20.774Z,73.74
2022-08-14T01:36:05.157Z,73.43
2022-08-14T01:36:32.634Z,73.74
2022-08-14T01:37:31.668Z,74.15
2022-08-14T01:38:31.602Z,74.15
2022-08-14T01:39:32.198Z,74.25
2022-08-14T01:40:32.999Z,74.25
2022-08-14T01:41:31.710Z,73.67
2022-08-14T01:42:36.203Z,74.28
2022-08-14T01:43:31.542Z,73.54
2022-08-14T01:44:33.690Z,72.92
2022-08-14T01:45:40.828Z,73.02
2022-08-14T01:46:33.531Z,71.80
2022-08-14T01:47:37.144Z,72.41
2022-08-14T01:48:32.507Z,72.11
2022-08-14T01:49:35.433Z,73.02
2022-08-14T01:50:33.704Z,72.52
2022-08-14T01:51:31.449Z,72.11
2022-08-14T01:52:57.642Z,72.41
2022-08-14T01:53:35.677Z,72.11
2022-08-14T01:54:37.968Z,72.21
2022-08-14T01:55:32.793Z,72.21
2022-08-14T01:56:31.401Z,72.08
2022-08-14T01:57:49.483Z,72.31
2022-08-14T01:58:32.382Z,72.28
2022-08-14T01:59:31.703Z,72.21
2022-08-14T02:00:36.162Z,72.41
2022-08-14T02:01:31.384Z,72.01
2022-08-14T02:02:36.731Z,72.69
2022-08-14T02:03:32.330Z,71.80
2022-08-14T02:04:40.889Z,71.67
2022-08-14T02:05:38.068Z,71.09
2022-08-14T02:06:33.756Z,71.56
2022-08-14T02:07:44.675Z,72.11
2022-08-14T02:08:35.643Z,72.11
2022-08-14T02:09:31.900Z,72.21
2022-08-14T02:10:31.247Z,72.21
2022-08-14T02:11:32.234Z,72.31
2022-08-14T02:12:31.313Z,73.02
2022-08-14T02:13:31.232Z,72.72
2022-08-14T02:14:32.110Z,72.62
2022-08-14T02:15:31.191Z,72.21
2022-08-14T02:16:31.185Z,72.01
2022-08-14T02:17:31.185Z,72.41
2022-08-14T02:18:32.577Z,72.21
2022-08-14T02:19:32.214Z,72.31
2022-08-14T02:20:31.141Z,72.92
2022-08-14T02:21:31.140Z,72.52
2022-08-14T02:22:33.208Z,72.11
2022-08-14T02:23:36.359Z,72.72
2022-08-14T02:24:39.797Z,72.82
2022-08-14T02:25:32.096Z,73.88
2022-08-14T02:26:31.127Z,74.52
2022-08-14T02:28:24.750Z,74.73
2022-08-14T02:28:58.028Z,74.21
2022-08-14T02:29:59.546Z,75.03
2022-08-14T02:30:32.030Z,75.88
2022-08-14T02:31:42.581Z,75.07
2022-08-14T02:32:37.310Z,75.37
2022-08-14T02:33:33.521Z,75.98
2022-08-14T02:34:31.011Z,76.29
2022-08-14T02:35:32.735Z,74.25
2022-08-14T02:37:06.391Z,75.07
2022-08-14T02:37:47.115Z,75.07
2022-08-14T02:38:34.998Z,73.84
2022-08-14T02:39:31.024Z,74.73
2022-08-14T02:40:32.131Z,74.11
2022-08-14T02:41:35.039Z,72.58
2022-08-14T02:42:37.525Z,72.24
2022-08-14T02:43:36.457Z,72.75
2022-08-14T02:44:31.878Z,72.45
2022-08-14T02:45:33.538Z,72.24
2022-08-14T02:46:32.276Z,72.58
2022-08-14T02:47:30.846Z,72.79
2022-08-14T02:49:03.985Z,73.16
2022-08-14T02:49:34.210Z,72.99
2022-08-14T02:50:33.727Z,73.30
2022-08-14T02:51:30.849Z,72.89
2022-08-14T02:52:57.637Z,73.19
2022-08-14T02:53:33.367Z,72.79
2022-08-14T02:54:30.834Z,73.30
2022-08-14T02:55:30.756Z,73.40
2022-08-14T02:57:39.136Z,74.11
2022-08-14T02:57:40.785Z,72.79
2022-08-14T02:58:31.726Z,73.50
2022-08-14T02:59:33.900Z,73.40
2022-08-14T03:00:30.710Z,73.30
2022-08-14T03:01:31.189Z,72.79
2022-08-14T03:02:48.769Z,72.79
2022-08-14T03:03:31.999Z,73.06
2022-08-14T03:04:31.659Z,73.10
2022-08-14T03:05:35.950Z,72.89
2022-08-14T03:06:35.029Z,72.75
2022-08-14T03:07:31.626Z,72.96
2022-08-14T03:08:30.658Z,72.48
2022-08-14T03:10:24.649Z,72.28
2022-08-14T03:10:33.494Z,72.28
2022-08-14T03:11:34.661Z,72.48
2022-08-14T03:12:31.781Z,72.38
2022-08-14T03:13:30.574Z,72.28
2022-08-14T03:14:30.586Z,72.58
2022-08-14T03:15:30.554Z,72.28
2022-08-14T03:16:30.533Z,72.89
2022-08-14T03:17:32.014Z,72.99
2022-08-14T03:18:32.812Z,72.99
2022-08-14T03:19:30.515Z,72.58
2022-08-14T03:20:30.697Z,72.79
2022-08-14T03:21:30.489Z,72.89
2022-08-14T03:22:30.515Z,72.62
2022-08-14T03:23:30.459Z,72.58
2022-08-14T03:24:30.461Z,72.79
2022-08-14T03:25:30.476Z,72.38
2022-08-14T03:26:30.889Z,72.58
2022-08-14T03:27:35.373Z,73.10
2022-08-14T03:28:33.620Z,72.82
2022-08-14T03:29:30.403Z,72.28
2022-08-14T03:30:39.981Z,72.00
2022-08-14T03:31:31.398Z,72.38
2022-08-14T03:32:32.154Z,72.28
2022-08-14T03:33:38.324Z,72.38
2022-08-14T03:34:48.042Z,72.38
2022-08-14T03:35:39.921Z,72.11
2022-08-14T03:37:37.511Z,72.38
2022-08-14T03:39:10.958Z,72.48
2022-08-14T03:39:13.317Z,72.58
2022-08-14T03:39:31.318Z,72.89
2022-08-14T03:40:30.375Z,72.31
2022-08-14T03:41:33.255Z,72.69
2022-08-14T03:42:35.853Z,72.69
2022-08-14T03:43:32.471Z,72.28
2022-08-14T03:45:25.914Z,72.48
2022-08-14T03:45:34.857Z,72.24
2022-08-14T03:46:51.951Z,72.89
2022-08-14T03:47:46.183Z,72.89
2022-08-14T03:48:31.596Z,72.48
2022-08-14T03:49:31.194Z,72.62
2022-08-14T03:50:31.324Z,72.31
2022-08-14T03:51:30.178Z,72.31
2022-08-14T03:52:38.909Z,72.28
2022-08-14T03:53:31.266Z,72.38
2022-08-14T03:54:30.144Z,72.41
2022-08-14T03:55:30.506Z,72.82
2022-08-14T03:56:30.109Z,72.31
2022-08-14T03:57:30.092Z,72.48
2022-08-14T03:58:36.673Z,72.08
2022-08-14T03:59:31.067Z,72.62
2022-08-14T04:00:40.491Z,73.03
2022-08-14T04:01:39.196Z,72.92
2022-08-14T04:02:32.621Z,73.03
2022-08-14T04:03:31.073Z,72.48
2022-08-14T04:04:30.369Z,72.31
2022-08-14T04:05:42.565Z,72.21
2022-08-14T04:06:31.618Z,72.38
2022-08-14T04:07:32.880Z,72.17
2022-08-14T04:08:31.885Z,72.28
2022-08-14T04:09:30.107Z,72.38
2022-08-14T04:10:31.968Z,72.58
2022-08-14T04:11:29.942Z,72.38
2022-08-14T04:12:29.969Z,72.48
2022-08-14T04:13:31.868Z,72.17
2022-08-14T04:14:29.908Z,71.67
2022-08-14T04:15:29.921Z,72.17
2022-08-14T04:16:31.720Z,72.17
2022-08-14T04:17:30.795Z,72.28
2022-08-14T04:18:29.881Z,72.38
2022-08-14T04:19:33.054Z,72.58
2022-08-14T04:20:30.888Z,71.97
2022-08-14T04:21:30.789Z,72.48
2022-08-14T04:22:30.815Z,72.48
2022-08-14T04:23:32.901Z,72.82
2022-08-14T04:24:29.811Z,71.67
2022-08-14T04:25:29.792Z,71.77
2022-08-14T04:26:42.336Z,71.56
2022-08-14T04:27:30.778Z,71.15
2022-08-14T04:29:07.369Z,71.67
2022-08-14T04:29:30.761Z,71.63
2022-08-14T04:30:32.756Z,71.26
2022-08-14T04:32:57.683Z,71.12
2022-08-14T04:32:59.141Z,71.56
2022-08-14T04:33:30.734Z,71.73
2022-08-14T04:34:29.792Z,71.46
2022-08-14T04:35:55.143Z,71.36
2022-08-14T04:36:30.678Z,70.95
2022-08-14T04:37:30.661Z,70.75
2022-08-14T04:38:37.013Z,70.92
2022-08-14T04:39:30.684Z,71.53
2022-08-14T04:40:29.633Z,71.87
2022-08-14T04:41:30.535Z,72.38
2022-08-14T04:42:29.603Z,72.58
2022-08-14T04:43:32.507Z,72.79
2022-08-14T04:44:36.958Z,72.17
2022-08-14T04:45:30.584Z,72.45
2022-08-14T04:46:56.315Z,71.94
2022-08-14T04:47:30.848Z,73.91
2022-08-14T04:48:39.345Z,74.15
2022-08-14T04:49:30.545Z,73.10
2022-08-14T04:50:43.739Z,72.69
2022-08-14T04:51:46.334Z,71.67
2022-08-14T04:52:30.492Z,72.58
2022-08-14T04:53:35.598Z,72.58
2022-08-14T04:54:30.479Z,72.58
2022-08-14T04:55:29.476Z,72.08
2022-08-14T04:56:34.291Z,73.10
2022-08-14T04:57:30.446Z,72.45
2022-08-14T04:58:32.293Z,72.96
2022-08-14T04:59:29.420Z,72.28
2022-08-14T05:00:29.407Z,72.38
2022-08-14T05:01:29.543Z,71.87
2022-08-14T05:02:30.436Z,71.36
2022-08-14T05:03:29.380Z,70.92
2022-08-14T05:04:29.399Z,71.02
2022-08-14T05:05:29.359Z,70.92
2022-08-14T05:06:35.081Z,71.53
2022-08-14T05:07:46.607Z,71.73
2022-08-14T05:08:32.430Z,70.92
2022-08-14T05:09:30.595Z,70.72
2022-08-14T05:10:32.344Z,70.41
2022-08-14T05:11:29.289Z,71.09
2022-08-14T05:13:12.602Z,71.50
2022-08-14T05:13:38.356Z,71.39
2022-08-14T05:14:43.000Z,70.86
2022-08-14T05:15:32.076Z,70.92
2022-08-14T05:16:29.256Z,70.92
2022-08-14T05:17:43.617Z,70.62
2022-08-14T05:19:18.890Z,70.51
2022-08-14T05:19:31.990Z,69.77
2022-08-14T05:21:55.228Z,69.23
2022-08-14T05:22:00.102Z,68.89
2022-08-14T05:22:30.174Z,67.54
2022-08-14T05:23:29.183Z,67.71
2022-08-14T05:24:29.180Z,67.55
2022-08-14T05:25:31.039Z,68.80
2022-08-14T05:26:29.184Z,65.48
2022-08-14T05:27:31.058Z,66.13
2022-08-14T05:28:29.133Z,65.39
2022-08-14T05:29:29.112Z,63.64
2022-08-14T05:30:29.083Z,62.40
2022-08-14T05:31:39.477Z,62.07
2022-08-14T05:32:30.086Z,62.34
2022-08-14T05:33:29.065Z,60.72
2022-08-14T05:34:29.055Z,61.10
2022-08-14T05:35:29.040Z,61.57
2022-08-14T05:36:29.027Z,60.64
2022-08-14T05:37:29.881Z,59.63
2022-08-14T05:38:31.114Z,62.08
2022-08-14T05:39:29.036Z,63.39
2022-08-14T05:40:28.977Z,63.93
2022-08-14T05:41:52.807Z,63.58
2022-08-14T05:42:32.132Z,64.12
2022-08-14T05:43:40.960Z,63.99
2022-08-14T05:44:30.973Z,63.01
2022-08-14T05:45:28.926Z,61.99
2022-08-14T05:46:28.925Z,63.95
2022-08-14T05:47:38.837Z,62.12
2022-08-14T05:48:33.635Z,62.49
2022-08-14T05:49:33.142Z,63.06
2022-08-14T05:50:29.883Z,63.39
2022-08-14T05:51:28.867Z,64.23
2022-08-14T05:52:39.345Z,65.07
2022-08-14T05:53:29.965Z,66.39
2022-08-14T05:54:31.371Z,65.14
2022-08-14T05:55:29.812Z,64.64
2022-08-14T05:56:29.179Z,64.23
2022-08-14T05:57:28.799Z,65.55
2022-08-14T05:58:40.998Z,65.08
2022-08-14T05:59:36.371Z,65.25
2022-08-14T06:00:31.692Z,64.24
2022-08-14T06:01:31.310Z,64.34
2022-08-14T06:02:28.741Z,65.15
2022-08-14T06:03:28.729Z,63.40
2022-08-14T06:04:28.721Z,61.24
2022-08-14T06:05:29.413Z,61.65
2022-08-14T06:06:28.694Z,60.58
2022-08-14T06:07:28.703Z,60.25
2022-08-14T06:08:36.527Z,60.22
2022-08-14T06:09:29.822Z,60.06
2022-08-14T06:10:29.742Z,60.94
2022-08-14T06:11:30.919Z,62.02
2022-08-14T06:13:00.178Z,59.97
2022-08-14T06:13:31.592Z,60.53
2022-08-14T06:14:29.604Z,63.02
2022-08-14T06:15:30.294Z,63.09
2022-08-14T06:16:28.585Z,61.95
2022-08-14T06:17:28.618Z,63.03
2022-08-14T06:18:31.982Z,62.19
2022-08-14T06:19:28.556Z,62.29
2022-08-14T06:20:28.781Z,62.73
2022-08-14T06:21:28.532Z,62.70
2022-08-14T06:22:28.530Z,62.19
2022-08-14T06:23:28.509Z,62.06
2022-08-14T06:24:30.783Z,59.75
2022-08-14T06:25:29.493Z,59.75
2022-08-14T06:26:30.451Z,56.52
2022-08-14T06:27:34.011Z,55.79
2022-08-14T06:28:29.471Z,56.97
2022-08-14T06:29:32.237Z,57.85
2022-08-14T06:30:30.407Z,57.28
2022-08-14T06:31:29.420Z,59.72
2022-08-14T06:32:37.916Z,61.90
2022-08-14T06:35:04.270Z,60.16
2022-08-14T06:35:09.553Z,61.70
2022-08-14T06:35:29.378Z,60.97
2022-08-14T06:36:28.386Z,59.48
2022-08-14T06:37:28.361Z,60.29
2022-08-14T06:38:28.351Z,59.28
2022-08-14T06:39:37.273Z,59.39
2022-08-14T06:40:29.458Z,59.62
2022-08-14T06:41:35.996Z,59.52
2022-08-14T06:42:33.041Z,59.42
2022-08-14T06:43:31.758Z,56.72
2022-08-14T06:44:32.367Z,61.46
2022-08-14T06:45:28.272Z,58.91
2022-08-14T06:46:34.135Z,59.46
2022-08-14T06:47:29.245Z,57.24
2022-08-14T06:48:28.272Z,56.54
2022-08-14T06:49:28.235Z,58.33
2022-08-14T06:50:30.049Z,56.49
2022-08-14T06:51:38.767Z,55.96
2022-08-14T06:52:29.457Z,55.26
2022-08-14T06:53:28.616Z,52.67
2022-08-14T06:54:31.119Z,52.67
2022-08-14T06:55:29.574Z,53.88
2022-08-14T06:56:28.180Z,55.55
2022-08-14T06:57:28.137Z,54.75
2022-08-14T06:58:28.894Z,56.06
2022-08-14T06:59:28.115Z,54.28
2022-08-14T07:00:31.123Z,56.38
2022-08-14T07:01:28.231Z,54.91
2022-08-14T07:02:28.695Z,54.33
2022-08-14T07:03:28.080Z,54.83
2022-08-14T07:04:28.077Z,55.43
2022-08-14T07:05:28.051Z,56.95
2022-08-14T07:06:46.907Z,55.71
2022-08-14T07:07:29.029Z,54.53
2022-08-14T07:08:29.493Z,55.71
2022-08-14T07:09:28.319Z,55.00
2022-08-14T07:10:29.098Z,56.09
2022-08-14T07:11:27.997Z,54.55
2022-08-14T07:12:34.900Z,55.05
2022-08-14T07:13:30.376Z,55.33
2022-08-14T07:14:27.957Z,54.45
2022-08-14T07:15:28.573Z,53.22
2022-08-14T07:16:27.955Z,52.24
2022-08-14T07:17:28.035Z,54.80
2022-08-14T07:18:27.953Z,53.80
2022-08-14T07:19:27.909Z,54.22
2022-08-14T07:20:31.327Z,55.93
2022-08-14T07:21:27.882Z,56.13
2022-08-14T07:22:32.940Z,53.82
2022-08-14T07:23:31.356Z,56.03
2022-08-14T07:24:31.395Z,53.62
2022-08-14T07:25:32.596Z,56.76
2022-08-14T07:26:29.511Z,56.13
2022-08-14T07:27:27.817Z,56.16
2022-08-14T07:28:28.799Z,56.28
2022-08-14T07:29:29.059Z,55.66
2022-08-14T07:30:34.244Z,55.43
2022-08-14T07:31:28.771Z,56.93
2022-08-14T07:32:34.015Z,56.13
2022-08-14T07:33:30.085Z,56.74
2022-08-14T07:34:36.438Z,56.13
2022-08-14T07:35:30.341Z,55.80
2022-08-14T07:36:30.637Z,54.15
2022-08-14T07:37:27.709Z,54.15
2022-08-14T07:38:31.997Z,56.05
2022-08-14T07:39:28.773Z,54.25
2022-08-14T07:40:29.919Z,53.75
2022-08-14T07:41:33.446Z,53.75
2022-08-14T07:42:28.648Z,53.77
2022-08-14T07:43:27.660Z,55.78
2022-08-14T07:44:32.753Z,54.55
2022-08-14T07:45:28.615Z,54.58
2022-08-14T07:46:28.643Z,55.75
2022-08-14T07:47:27.592Z,57.86
2022-08-14T07:48:27.584Z,55.25
2022-08-14T07:49:27.624Z,56.88
2022-08-14T07:50:27.561Z,55.38
2022-08-14T07:51:36.878Z,56.88
2022-08-14T07:52:30.898Z,55.05
2022-08-14T07:53:27.532Z,55.52
2022-08-14T07:54:29.984Z,55.52
2022-08-14T07:55:29.076Z,56.98
2022-08-14T07:56:46.725Z,55.60
2022-08-14T07:57:28.484Z,54.22
2022-08-14T07:58:33.830Z,55.98
2022-08-14T07:59:41.180Z,53.37
2022-08-14T08:00:30.973Z,52.19
2022-08-14T08:01:27.483Z,56.43
2022-08-14T08:02:27.470Z,55.80
2022-08-14T08:03:27.970Z,56.40
2022-08-14T08:04:27.478Z,54.74
2022-08-14T08:05:27.398Z,54.97
2022-08-14T08:06:27.655Z,54.90
2022-08-14T08:07:29.863Z,55.98
2022-08-14T08:08:27.714Z,55.51
2022-08-14T08:09:32.079Z,55.43
2022-08-14T08:10:46.743Z,56.68
2022-08-14T08:11:28.333Z,56.76
2022-08-14T08:12:40.386Z,57.53
2022-08-14T08:13:29.227Z,57.70
2022-08-14T08:14:27.331Z,54.25
2022-08-14T08:15:27.301Z,55.98
2022-08-14T08:16:27.334Z,57.18
2022-08-14T08:17:27.266Z,56.54
2022-08-14T08:18:29.237Z,57.34
2022-08-14T08:19:27.246Z,57.77
2022-08-14T08:20:28.276Z,57.37
2022-08-14T08:21:27.253Z,57.74
2022-08-14T08:22:28.294Z,56.56
2022-08-14T08:23:31.000Z,56.34
2022-08-14T08:24:28.213Z,56.10
2022-08-14T08:25:27.194Z,57.46
2022-08-14T08:26:27.170Z,58.03
2022-08-14T08:27:27.178Z,56.28
2022-08-14T08:28:27.203Z,56.56
2022-08-14T08:29:29.146Z,55.52
2022-08-14T08:30:27.191Z,57.30
2022-08-14T08:31:33.109Z,55.67
2022-08-14T08:32:30.022Z,55.87
2022-08-14T08:33:27.112Z,56.17
2022-08-14T08:34:28.115Z,54.67
2022-08-14T08:35:46.286Z,55.94
2022-08-14T08:36:29.841Z,55.22
2022-08-14T08:37:30.619Z,52.89
2022-08-14T08:39:16.525Z,53.89
2022-08-14T08:39:42.215Z,53.79
2022-08-14T08:40:31.047Z,54.62
2022-08-14T08:41:27.008Z,54.19
2022-08-14T08:42:31.641Z,52.22
2022-08-14T08:43:27.998Z,52.14
2022-08-14T08:44:32.992Z,54.24
2022-08-14T08:45:27.968Z,52.94
2022-08-14T08:46:26.978Z,55.82
2022-08-14T08:47:26.945Z,56.34
2022-08-14T08:48:31.839Z,53.67
2022-08-14T08:49:27.921Z,55.34
2022-08-14T08:50:31.874Z,53.54
2022-08-14T08:51:30.636Z,55.77
2022-08-14T08:52:31.171Z,53.04
2022-08-14T08:53:26.875Z,52.17
2022-08-14T08:54:31.030Z,54.06
2022-08-14T08:55:26.871Z,54.02
2022-08-14T08:56:30.759Z,54.11
2022-08-14T08:57:27.833Z,53.02
2022-08-14T08:58:26.923Z,52.34
2022-08-14T08:59:30.851Z,53.22
2022-08-14T09:00:27.034Z,54.49
2022-08-14T09:01:26.844Z,53.86
2022-08-14T09:02:27.683Z,52.39
2022-08-14T09:03:27.469Z,54.46
2022-08-14T09:04:26.772Z,52.27
2022-08-14T09:05:26.822Z,51.29
2022-08-14T09:07:00.184Z,51.89
2022-08-14T09:07:27.745Z,52.02
2022-08-14T09:08:31.194Z,52.12
2022-08-14T09:09:33.165Z,54.59
2022-08-14T09:10:27.726Z,50.49
2022-08-14T09:11:27.073Z,53.47
2022-08-14T09:12:26.871Z,53.47
2022-08-14T09:13:26.701Z,53.66
2022-08-14T09:14:26.675Z,50.04
2022-08-14T09:15:26.648Z,53.12
2022-08-14T09:16:27.663Z,51.84
2022-08-14T09:17:26.641Z,51.94
2022-08-14T09:18:26.629Z,51.87
2022-08-14T09:19:26.609Z,53.04
2022-08-14T09:20:30.618Z,52.02
2022-08-14T09:21:31.214Z,52.14
2022-08-14T09:22:35.427Z,51.45
2022-08-14T09:23:34.929Z,50.57
2022-08-14T09:24:36.302Z,49.65
2022-08-14T09:26:00.301Z,52.22
2022-08-14T09:26:28.600Z,51.52
2022-08-14T09:27:26.594Z,48.94
2022-08-14T09:28:26.508Z,51.42
2022-08-14T09:29:28.851Z,52.76
2022-08-14T09:30:32.405Z,49.55
2022-08-14T09:31:27.526Z,50.07
2022-08-14T09:32:57.811Z,50.57
2022-08-14T09:33:27.461Z,48.78
2022-08-14T09:34:27.260Z,48.05
2022-08-14T09:35:27.694Z,47.06
2022-08-14T09:36:26.422Z,47.14
2022-08-14T09:37:26.459Z,46.16
2022-08-14T09:38:27.351Z,45.68
2022-08-14T09:39:26.420Z,48.28
2022-08-14T09:40:26.376Z,49.03
2022-08-14T09:41:26.389Z,47.74
2022-08-14T09:42:33.325Z,46.54
2022-08-14T09:43:27.361Z,49.90
2022-08-14T09:44:26.375Z,48.41
2022-08-14T09:45:26.330Z,47.99
2022-08-14T09:46:26.342Z,43.51
2022-08-14T09:47:26.324Z,45.04
2022-08-14T09:48:27.768Z,45.76
2022-08-14T09:49:26.409Z,45.94
2022-08-14T09:50:26.869Z,45.62
2022-08-14T09:51:26.263Z,46.39
2022-08-14T09:52:33.740Z,45.85
2022-08-14T09:54:12.834Z,46.31
2022-08-14T09:54:27.225Z,39.47
2022-08-14T09:55:26.278Z,44.71
2022-08-14T09:56:30.408Z,42.33
2022-08-14T09:57:27.524Z,46.60
2022-08-14T09:58:26.186Z,39.03
2022-08-14T09:59:26.188Z,44.87
2022-08-14T10:00:29.341Z,44.18
2022-08-14T10:01:26.172Z,43.36
2022-08-14T10:02:28.422Z,41.91
2022-08-14T10:03:26.129Z,40.52
2022-08-14T10:04:34.573Z,37.34
2022-08-14T10:05:27.145Z,39.13
2022-08-14T10:06:28.240Z,42.27
2022-08-14T10:07:26.086Z,43.64
2022-08-14T10:08:26.912Z,40.38
2022-08-14T10:09:26.095Z,44.93
2022-08-14T10:10:27.049Z,43.79
2022-08-14T10:11:35.140Z,40.09
2022-08-14T10:12:28.982Z,42.83
2022-08-14T10:13:26.018Z,43.38
2022-08-14T10:14:34.808Z,41.52
2022-08-14T10:15:27.848Z,42.58
2022-08-14T10:16:33.108Z,42.45
2022-08-14T10:17:27.652Z,40.44
2022-08-14T10:18:26.961Z,40.56
2022-08-14T10:19:25.951Z,40.07
2022-08-14T10:20:40.622Z,41.44
2022-08-14T10:21:26.928Z,39.87
2022-08-14T10:23:15.142Z,39.69
2022-08-14T10:23:27.137Z,40.96
2022-08-14T10:24:36.412Z,40.64
2022-08-14T10:25:27.033Z,37.67
2022-08-14T10:26:28.419Z,39.59
2022-08-14T10:27:26.570Z,40.19
2022-08-14T10:29:03.955Z,38.93
2022-08-14T10:29:26.850Z,38.67
2022-08-14T10:30:26.323Z,38.47
2022-08-14T10:31:26.969Z,38.81
2022-08-14T10:32:29.147Z,39.03
2022-08-14T10:33:26.812Z,41.00
2022-08-14T10:34:33.318Z,40.50
2022-08-14T10:35:31.822Z,39.53
2022-08-14T10:36:37.110Z,41.50
2022-08-14T10:37:27.903Z,40.02
2022-08-14T10:38:25.785Z,40.42
2022-08-14T10:39:25.846Z,42.39
2022-08-14T10:40:38.803Z,41.66
2022-08-14T10:41:31.815Z,40.66
2022-08-14T10:42:26.704Z,42.45
2022-08-14T10:43:25.940Z,39.84
2022-08-14T10:44:29.732Z,39.25
2022-08-14T10:45:25.812Z,40.24
2022-08-14T10:47:36.563Z,41.52
2022-08-14T10:47:40.111Z,39.53
2022-08-14T10:48:38.386Z,39.92
2022-08-14T10:49:26.643Z,39.05
2022-08-14T10:50:25.621Z,39.48
2022-08-14T10:51:25.630Z,37.12
2022-08-14T10:52:25.639Z,37.62
2022-08-14T10:53:25.593Z,39.69
2022-08-14T10:54:37.237Z,40.64
2022-08-14T10:55:26.581Z,39.33
2022-08-14T10:56:33.975Z,39.83
2022-08-14T10:57:26.548Z,40.52
2022-08-14T10:58:25.582Z,39.83
2022-08-14T10:59:31.050Z,43.18
2022-08-14T11:00:30.288Z,39.09
2022-08-14T11:01:26.505Z,39.59
2022-08-14T11:02:44.993Z,38.90
2022-08-14T11:03:35.760Z,37.21
2022-08-14T11:04:27.810Z,37.60
2022-08-14T11:05:25.478Z,39.67
2022-08-14T11:06:25.565Z,39.15
2022-08-14T11:07:25.442Z,35.69
2022-08-14T11:08:25.429Z,35.50
2022-08-14T11:09:26.454Z,38.17
2022-08-14T11:10:26.444Z,35.67
2022-08-14T11:11:25.410Z,34.20
2022-08-14T11:12:34.730Z,34.94
2022-08-14T11:13:26.380Z,37.69
2022-08-14T11:14:26.503Z,35.19
2022-08-14T11:15:25.362Z,36.08
2022-08-14T11:16:25.376Z,37.26
2022-08-14T11:17:25.353Z,35.98
2022-08-14T11:18:30.171Z,35.98
2022-08-14T11:19:26.326Z,37.26
2022-08-14T11:20:25.304Z,37.45
2022-08-14T11:21:25.295Z,39.04
2022-08-14T11:22:56.483Z,36.18
2022-08-14T11:23:26.378Z,37.09
2022-08-14T11:24:50.540Z,35.60
2022-08-14T11:25:36.902Z,38.88
2022-08-14T11:26:26.242Z,38.85
2022-08-14T11:27:33.515Z,39.15
2022-08-14T11:28:46.881Z,39.73
2022-08-14T11:29:26.921Z,38.17
2022-08-14T11:30:51.588Z,39.95
2022-08-14T11:31:26.186Z,38.07
2022-08-14T11:32:26.174Z,35.88
2022-08-14T11:33:25.170Z,37.37
2022-08-14T11:34:29.828Z,37.77
2022-08-14T11:35:26.150Z,39.23
2022-08-14T11:36:57.163Z,33.90
2022-08-14T11:37:39.368Z,37.19
2022-08-14T11:38:26.111Z,37.77
2022-08-14T11:39:33.793Z,40.42
2022-08-14T11:40:29.251Z,39.04
2022-08-14T11:41:25.087Z,37.83
2022-08-14T11:42:58.562Z,36.05
2022-08-14T11:43:29.563Z,36.74
2022-08-14T11:44:45.794Z,38.72
2022-08-14T11:45:26.048Z,38.34
2022-08-14T11:46:29.850Z,36.48
2022-08-14T11:47:26.027Z,37.19
2022-08-14T11:49:02.562Z,37.41
2022-08-14T11:49:26.006Z,37.69
2022-08-14T11:50:36.276Z,38.48
2022-08-14T11:51:26.003Z,38.68
2022-08-14T11:52:24.978Z,38.96
2022-08-14T11:53:24.986Z,38.56
2022-08-14T11:54:34.372Z,36.26
2022-08-14T11:55:26.347Z,37.39
2022-08-14T11:56:25.737Z,35.71
2022-08-14T11:57:24.913Z,36.79
2022-08-14T11:58:24.901Z,37.13
2022-08-14T11:59:26.406Z,37.43
2022-08-14T12:00:31.859Z,37.04
2022-08-14T12:01:25.869Z,37.04
2022-08-14T12:02:39.134Z,36.25
2022-08-14T12:03:37.325Z,36.73
2022-08-14T12:04:33.277Z,38.02
2022-08-14T12:05:25.823Z,37.81
2022-08-14T12:06:28.588Z,37.70
2022-08-14T12:07:25.804Z,37.01
2022-08-14T12:08:30.214Z,36.81
2022-08-14T12:09:25.783Z,36.20
2022-08-14T12:10:26.056Z,37.11
2022-08-14T12:11:24.787Z,36.71
2022-08-14T12:12:35.080Z,34.83
2022-08-14T12:13:27.320Z,33.94
2022-08-14T12:14:29.881Z,37.01
2022-08-14T12:15:25.730Z,35.22
2022-08-14T12:16:24.710Z,34.15
2022-08-14T12:17:24.708Z,35.34
2022-08-14T12:18:24.816Z,35.24
2022-08-14T12:19:24.689Z,36.13
2022-08-14T12:20:30.149Z,39.01
2022-08-14T12:21:25.757Z,35.82
2022-08-14T12:22:30.347Z,34.74
2022-08-14T12:23:24.707Z,36.22
2022-08-14T12:24:36.283Z,34.84
2022-08-14T12:25:25.616Z,36.23
2022-08-14T12:26:39.025Z,38.20
2022-08-14T12:27:25.601Z,36.91
2022-08-14T12:28:27.216Z,36.11
2022-08-14T12:29:25.594Z,37.30
2022-08-14T12:30:24.594Z,37.21
2022-08-14T12:31:24.556Z,38.18
2022-08-14T12:32:25.557Z,38.94
2022-08-14T12:33:25.331Z,38.84
2022-08-14T12:34:25.368Z,39.79
2022-08-14T12:35:24.531Z,37.70
2022-08-14T12:36:25.223Z,37.58
2022-08-14T12:37:24.514Z,35.98
2022-08-14T12:38:24.492Z,36.77
2022-08-14T12:39:24.506Z,35.09
2022-08-14T12:40:24.459Z,33.82
2022-08-14T12:41:28.192Z,33.23
2022-08-14T12:42:27.441Z,34.39
2022-08-14T12:43:25.568Z,34.22
2022-08-14T12:44:24.446Z,34.31
2022-08-14T12:45:24.419Z,36.37
2022-08-14T12:46:27.129Z,36.06
2022-08-14T12:47:24.491Z,34.67
2022-08-14T12:48:31.680Z,34.30
2022-08-14T12:49:26.001Z,34.00
2022-08-14T12:50:24.545Z,35.57
2022-08-14T12:51:27.096Z,36.06
2022-08-14T12:52:35.987Z,35.78